sensor_id;sensor_type;location;lat;lon;timestamp;P1;durP1;ratioP1;P2;durP2;ratioP2
70293;SDS011;74367;35.280;-77.632;2024-03-23T00:54:01;4.95;;;0.88;;
70293;SDS011;74367;35.280;-77.632;2024-03-23T00:56:29;7.32;;;1.02;;
70293;SDS011;74367;35.280;-77.632;2024-03-23T00:58:55;6.57;;;1.47;;
70293;SDS011;74367;35.280;-77.632;2024-03-23T01:01:21;6.05;;;1.15;;
70293;SDS011;74367;35.280;-77.632;2024-03-23T01:03:48;8.35;;;1.35;;
70293;SDS011;74367;35.280;-77.632;2024-03-23T01:06:13;6.97;;;1.30;;
70293;SDS011;74367;35.280;-77.632;2024-03-23T01:08:40;4.97;;;1.10;;
70293;SDS011;74367;35.280;-77.632;2024-03-23T01:11:06;10.17;;;1.20;;
70293;SDS011;74367;35.280;-77.632;2024-03-23T01:13:33;6.75;;;1.02;;
70293;SDS011;74367;35.280;-77.632;2024-03-23T01:15:59;6.50;;;1.45;;
70293;SDS011;74367;35.280;-77.632;2024-03-23T01:18:25;5.95;;;1.52;;
70293;SDS011;74367;35.280;-77.632;2024-03-23T01:20:52;5.30;;;1.02;;
70293;SDS011;74367;35.280;-77.632;2024-03-23T01:23:18;9.33;;;1.47;;
70293;SDS011;74367;35.280;-77.632;2024-03-23T01:25:51;7.72;;;1.33;;
70293;SDS011;74367;35.280;-77.632;2024-03-23T01:28:18;6.13;;;1.45;;
70293;SDS011;74367;35.280;-77.632;2024-03-23T01:30:49;7.53;;;0.90;;
70293;SDS011;74367;35.280;-77.632;2024-03-23T01:33:15;6.80;;;1.45;;
70293;SDS011;74367;35.280;-77.632;2024-03-23T01:35:41;8.00;;;1.30;;
70293;SDS011;74367;35.280;-77.632;2024-03-23T01:38:07;4.65;;;1.20;;
70293;SDS011;74367;35.280;-77.632;2024-03-23T01:40:33;6.53;;;1.45;;
70293;SDS011;74367;35.280;-77.632;2024-03-23T01:43:08;7.40;;;1.30;;
70293;SDS011;74367;35.280;-77.632;2024-03-23T01:45:34;6.23;;;1.93;;
70293;SDS011;74367;35.280;-77.632;2024-03-23T01:48:00;6.30;;;1.20;;
70293;SDS011;74367;35.280;-77.632;2024-03-23T01:50:27;6.43;;;1.25;;
70293;SDS011;74367;35.280;-77.632;2024-03-23T01:52:59;4.70;;;0.93;;
70293;SDS011;74367;35.280;-77.632;2024-03-23T01:55:28;6.70;;;1.20;;
70293;SDS011;74367;35.280;-77.632;2024-03-23T01:57:56;12.63;;;1.60;;
70293;SDS011;74367;35.280;-77.632;2024-03-23T02:00:22;10.38;;;1.90;;
70293;SDS011;74367;35.280;-77.632;2024-03-23T02:02:49;8.25;;;2.28;;
70293;SDS011;74367;35.280;-77.632;2024-03-23T02:05:15;12.25;;;2.22;;
70293;SDS011;74367;35.280;-77.632;2024-03-23T02:07:42;9.07;;;2.10;;
70293;SDS011;74367;35.280;-77.632;2024-03-23T02:10:09;8.67;;;2.57;;
70293;SDS011;74367;35.280;-77.632;2024-03-23T02:12:36;9.25;;;2.15;;
70293;SDS011;74367;35.280;-77.632;2024-03-23T02:15:02;14.77;;;2.72;;
70293;SDS011;74367;35.280;-77.632;2024-03-23T02:17:29;11.32;;;2.15;;
70293;SDS011;74367;35.280;-77.632;2024-03-23T02:19:56;7.35;;;1.52;;
70293;SDS011;74367;35.280;-77.632;2024-03-23T02:22:22;9.87;;;1.83;;
70293;SDS011;74367;35.280;-77.632;2024-03-23T02:24:48;8.75;;;2.70;;
70293;SDS011;74367;35.280;-77.632;2024-03-23T02:27:14;9.70;;;1.73;;
70293;SDS011;74367;35.280;-77.632;2024-03-23T02:29:41;14.43;;;2.80;;
70293;SDS011;74367;35.280;-77.632;2024-03-23T02:32:07;10.65;;;2.15;;
70293;SDS011;74367;35.280;-77.632;2024-03-23T02:34:34;10.23;;;2.47;;
70293;SDS011;74367;35.280;-77.632;2024-03-23T02:37:01;15.00;;;2.70;;
70293;SDS011;74367;35.280;-77.632;2024-03-23T02:39:27;10.93;;;2.50;;
70293;SDS011;74367;35.280;-77.632;2024-03-23T02:41:53;10.57;;;2.23;;
70293;SDS011;74367;35.280;-77.632;2024-03-23T02:44:19;19.20;;;5.03;;
70293;SDS011;74367;35.280;-77.632;2024-03-23T02:46:45;9.93;;;2.08;;
70293;SDS011;74367;35.280;-77.632;2024-03-23T02:49:11;14.18;;;3.00;;
70293;SDS011;74367;35.280;-77.632;2024-03-23T02:51:37;8.43;;;2.63;;
70293;SDS011;74367;35.280;-77.632;2024-03-23T02:54:03;8.18;;;2.03;;
70293;SDS011;74367;35.280;-77.632;2024-03-23T02:56:31;8.90;;;2.20;;
70293;SDS011;74367;35.280;-77.632;2024-03-23T02:58:58;10.80;;;2.50;;
70293;SDS011;74367;35.280;-77.632;2024-03-23T03:01:24;7.43;;;2.40;;
70293;SDS011;74367;35.280;-77.632;2024-03-23T03:03:51;9.27;;;2.10;;
70293;SDS011;74367;35.280;-77.632;2024-03-23T03:06:23;9.77;;;2.08;;
70293;SDS011;74367;35.280;-77.632;2024-03-23T03:08:50;8.05;;;1.95;;
70293;SDS011;74367;35.280;-77.632;2024-03-23T03:11:16;7.33;;;2.00;;
70293;SDS011;74367;35.280;-77.632;2024-03-23T03:13:42;10.15;;;1.88;;
70293;SDS011;74367;35.280;-77.632;2024-03-23T03:16:09;9.57;;;2.05;;
70293;SDS011;74367;35.280;-77.632;2024-03-23T03:18:36;9.32;;;2.05;;
70293;SDS011;74367;35.280;-77.632;2024-03-23T03:21:02;7.13;;;2.27;;
70293;SDS011;74367;35.280;-77.632;2024-03-23T03:23:30;7.40;;;2.28;;
70293;SDS011;74367;35.280;-77.632;2024-03-23T03:25:56;13.38;;;3.05;;
70293;SDS011;74367;35.280;-77.632;2024-03-23T03:28:23;6.95;;;1.80;;
70293;SDS011;74367;35.280;-77.632;2024-03-23T03:30:51;9.82;;;1.90;;
70293;SDS011;74367;35.280;-77.632;2024-03-23T03:33:17;6.23;;;1.73;;
70293;SDS011;74367;35.280;-77.632;2024-03-23T03:35:43;10.75;;;2.92;;
70293;SDS011;74367;35.280;-77.632;2024-03-23T03:38:10;14.98;;;3.53;;
70293;SDS011;74367;35.280;-77.632;2024-03-23T03:40:36;8.27;;;2.10;;
70293;SDS011;74367;35.280;-77.632;2024-03-23T03:43:02;7.73;;;2.30;;
70293;SDS011;74367;35.280;-77.632;2024-03-23T03:45:28;11.32;;;2.35;;
70293;SDS011;74367;35.280;-77.632;2024-03-23T03:47:54;7.32;;;2.20;;
70293;SDS011;74367;35.280;-77.632;2024-03-23T03:50:21;11.05;;;2.50;;
70293;SDS011;74367;35.280;-77.632;2024-03-23T03:52:47;15.87;;;2.87;;
70293;SDS011;74367;35.280;-77.632;2024-03-23T03:55:13;13.27;;;3.95;;
70293;SDS011;74367;35.280;-77.632;2024-03-23T03:57:40;10.77;;;2.50;;
70293;SDS011;74367;35.280;-77.632;2024-03-23T04:00:06;7.50;;;2.25;;
70293;SDS011;74367;35.280;-77.632;2024-03-23T04:02:36;22.13;;;5.23;;
70293;SDS011;74367;35.280;-77.632;2024-03-23T04:05:03;14.25;;;3.25;;
70293;SDS011;74367;35.280;-77.632;2024-03-23T04:07:29;13.68;;;4.10;;
70293;SDS011;74367;35.280;-77.632;2024-03-23T04:09:55;13.02;;;3.38;;
70293;SDS011;74367;35.280;-77.632;2024-03-23T04:12:21;10.38;;;3.30;;
70293;SDS011;74367;35.280;-77.632;2024-03-23T04:14:48;9.60;;;2.67;;
70293;SDS011;74367;35.280;-77.632;2024-03-23T04:17:14;9.65;;;3.45;;
70293;SDS011;74367;35.280;-77.632;2024-03-23T04:19:41;13.27;;;3.75;;
70293;SDS011;74367;35.280;-77.632;2024-03-23T04:22:07;19.75;;;3.47;;
70293;SDS011;74367;35.280;-77.632;2024-03-23T04:24:34;12.85;;;3.28;;
70293;SDS011;74367;35.280;-77.632;2024-03-23T04:27:00;14.43;;;3.37;;
70293;SDS011;74367;35.280;-77.632;2024-03-23T04:29:26;9.93;;;3.08;;
70293;SDS011;74367;35.280;-77.632;2024-03-23T04:31:52;15.77;;;4.03;;
70293;SDS011;74367;35.280;-77.632;2024-03-23T04:34:18;21.05;;;4.80;;
70293;SDS011;74367;35.280;-77.632;2024-03-23T04:36:44;24.50;;;5.05;;
70293;SDS011;74367;35.280;-77.632;2024-03-23T04:39:10;21.73;;;4.00;;
70293;SDS011;74367;35.280;-77.632;2024-03-23T04:41:36;42.38;;;5.20;;
70293;SDS011;74367;35.280;-77.632;2024-03-23T04:44:02;16.48;;;4.30;;
70293;SDS011;74367;35.280;-77.632;2024-03-23T04:46:28;15.03;;;4.67;;
70293;SDS011;74367;35.280;-77.632;2024-03-23T04:48:54;23.67;;;4.13;;
70293;SDS011;74367;35.280;-77.632;2024-03-23T04:51:22;58.03;;;4.85;;
70293;SDS011;74367;35.280;-77.632;2024-03-23T04:53:49;25.15;;;4.05;;
70293;SDS011;74367;35.280;-77.632;2024-03-23T04:56:16;25.30;;;4.50;;
70293;SDS011;74367;35.280;-77.632;2024-03-23T04:58:45;30.57;;;4.27;;
70293;SDS011;74367;35.280;-77.632;2024-03-23T05:01:11;14.80;;;3.30;;
70293;SDS011;74367;35.280;-77.632;2024-03-23T05:03:37;17.15;;;3.92;;
70293;SDS011;74367;35.280;-77.632;2024-03-23T05:06:03;12.95;;;3.63;;
70293;SDS011;74367;35.280;-77.632;2024-03-23T05:08:30;12.80;;;3.50;;
70293;SDS011;74367;35.280;-77.632;2024-03-23T05:10:57;21.83;;;3.40;;
70293;SDS011;74367;35.280;-77.632;2024-03-23T05:13:23;17.25;;;3.63;;
70293;SDS011;74367;35.280;-77.632;2024-03-23T05:15:54;17.20;;;4.07;;
70293;SDS011;74367;35.280;-77.632;2024-03-23T05:18:21;18.48;;;3.70;;
70293;SDS011;74367;35.280;-77.632;2024-03-23T05:20:47;11.63;;;3.70;;
70293;SDS011;74367;35.280;-77.632;2024-03-23T05:23:13;17.13;;;4.07;;
70293;SDS011;74367;35.280;-77.632;2024-03-23T05:25:39;15.63;;;4.45;;
70293;SDS011;74367;35.280;-77.632;2024-03-23T05:28:05;23.83;;;6.25;;
70293;SDS011;74367;35.280;-77.632;2024-03-23T05:30:32;27.17;;;5.00;;
70293;SDS011;74367;35.280;-77.632;2024-03-23T05:32:58;29.95;;;5.85;;
70293;SDS011;74367;35.280;-77.632;2024-03-23T05:35:24;34.70;;;3.97;;
70293;SDS011;74367;35.280;-77.632;2024-03-23T05:37:50;36.17;;;5.05;;
70293;SDS011;74367;35.280;-77.632;2024-03-23T05:40:16;22.02;;;5.13;;
70293;SDS011;74367;35.280;-77.632;2024-03-23T05:42:42;20.90;;;4.50;;
70293;SDS011;74367;35.280;-77.632;2024-03-23T05:45:08;20.42;;;4.65;;
70293;SDS011;74367;35.280;-77.632;2024-03-23T05:47:34;17.38;;;4.00;;
70293;SDS011;74367;35.280;-77.632;2024-03-23T05:50:01;29.70;;;5.82;;
70293;SDS011;74367;35.280;-77.632;2024-03-23T05:52:28;20.30;;;5.10;;
70293;SDS011;74367;35.280;-77.632;2024-03-23T05:54:54;17.13;;;4.80;;
70293;SDS011;74367;35.280;-77.632;2024-03-23T05:57:20;18.20;;;5.20;;
70293;SDS011;74367;35.280;-77.632;2024-03-23T05:59:47;24.13;;;5.40;;
70293;SDS011;74367;35.280;-77.632;2024-03-23T06:02:13;21.30;;;5.20;;
70293;SDS011;74367;35.280;-77.632;2024-03-23T06:04:39;14.68;;;5.43;;
70293;SDS011;74367;35.280;-77.632;2024-03-23T06:07:05;79.37;;;7.03;;
70293;SDS011;74367;35.280;-77.632;2024-03-23T06:09:39;51.35;;;5.93;;
70293;SDS011;74367;35.280;-77.632;2024-03-23T06:12:05;23.60;;;5.22;;
70293;SDS011;74367;35.280;-77.632;2024-03-23T06:14:32;25.55;;;4.95;;
70293;SDS011;74367;35.280;-77.632;2024-03-23T06:17:01;23.27;;;5.07;;
70293;SDS011;74367;35.280;-77.632;2024-03-23T06:19:27;18.20;;;4.60;;
70293;SDS011;74367;35.280;-77.632;2024-03-23T06:21:53;59.65;;;6.07;;
70293;SDS011;74367;35.280;-77.632;2024-03-23T06:24:21;35.95;;;5.97;;
70293;SDS011;74367;35.280;-77.632;2024-03-23T06:26:47;87.60;;;8.07;;
70293;SDS011;74367;35.280;-77.632;2024-03-23T06:29:13;57.03;;;6.70;;
70293;SDS011;74367;35.280;-77.632;2024-03-23T06:31:40;24.77;;;5.33;;
70293;SDS011;74367;35.280;-77.632;2024-03-23T06:34:06;36.53;;;5.68;;
70293;SDS011;74367;35.280;-77.632;2024-03-23T06:36:32;43.67;;;5.68;;
70293;SDS011;74367;35.280;-77.632;2024-03-23T06:38:58;55.35;;;6.10;;
70293;SDS011;74367;35.280;-77.632;2024-03-23T06:41:24;31.90;;;5.40;;
70293;SDS011;74367;35.280;-77.632;2024-03-23T06:43:51;54.25;;;6.15;;
70293;SDS011;74367;35.280;-77.632;2024-03-23T06:46:17;67.63;;;6.78;;
70293;SDS011;74367;35.280;-77.632;2024-03-23T06:48:44;47.85;;;6.00;;
70293;SDS011;74367;35.280;-77.632;2024-03-23T06:51:11;14.52;;;4.63;;
70293;SDS011;74367;35.280;-77.632;2024-03-23T06:53:37;19.50;;;3.63;;
70293;SDS011;74367;35.280;-77.632;2024-03-23T06:56:03;14.50;;;4.25;;
70293;SDS011;74367;35.280;-77.632;2024-03-23T06:58:30;27.88;;;4.90;;
70293;SDS011;74367;35.280;-77.632;2024-03-23T07:00:56;20.95;;;5.18;;
70293;SDS011;74367;35.280;-77.632;2024-03-23T07:03:22;24.60;;;4.77;;
70293;SDS011;74367;35.280;-77.632;2024-03-23T07:05:49;20.85;;;5.15;;
70293;SDS011;74367;35.280;-77.632;2024-03-23T07:08:15;17.15;;;3.90;;
70293;SDS011;74367;35.280;-77.632;2024-03-23T07:10:46;19.90;;;5.22;;
70293;SDS011;74367;35.280;-77.632;2024-03-23T07:13:12;17.00;;;4.67;;
70293;SDS011;74367;35.280;-77.632;2024-03-23T07:15:38;24.70;;;4.47;;
70293;SDS011;74367;35.280;-77.632;2024-03-23T07:18:04;21.88;;;4.78;;
70293;SDS011;74367;35.280;-77.632;2024-03-23T07:20:30;18.92;;;4.70;;
70293;SDS011;74367;35.280;-77.632;2024-03-23T07:22:56;21.87;;;4.53;;
70293;SDS011;74367;35.280;-77.632;2024-03-23T07:25:23;22.00;;;4.15;;
70293;SDS011;74367;35.280;-77.632;2024-03-23T07:27:50;18.90;;;4.90;;
70293;SDS011;74367;35.280;-77.632;2024-03-23T07:30:16;18.48;;;4.22;;
70293;SDS011;74367;35.280;-77.632;2024-03-23T07:32:44;25.87;;;5.07;;
70293;SDS011;74367;35.280;-77.632;2024-03-23T07:35:10;31.17;;;5.20;;
70293;SDS011;74367;35.280;-77.632;2024-03-23T07:37:36;20.85;;;4.55;;
70293;SDS011;74367;35.280;-77.632;2024-03-23T07:40:02;27.48;;;5.15;;
70293;SDS011;74367;35.280;-77.632;2024-03-23T07:42:29;23.13;;;4.68;;
70293;SDS011;74367;35.280;-77.632;2024-03-23T07:44:55;25.05;;;4.97;;
70293;SDS011;74367;35.280;-77.632;2024-03-23T07:47:22;18.70;;;3.87;;
70293;SDS011;74367;35.280;-77.632;2024-03-23T07:49:48;25.10;;;4.63;;
70293;SDS011;74367;35.280;-77.632;2024-03-23T07:52:17;19.80;;;4.70;;
70293;SDS011;74367;35.280;-77.632;2024-03-23T07:54:43;21.20;;;4.80;;
70293;SDS011;74367;35.280;-77.632;2024-03-23T07:57:09;18.30;;;4.60;;
70293;SDS011;74367;35.280;-77.632;2024-03-23T07:59:35;27.83;;;4.63;;
70293;SDS011;74367;35.280;-77.632;2024-03-23T08:02:02;22.25;;;4.50;;
70293;SDS011;74367;35.280;-77.632;2024-03-23T08:04:29;17.60;;;3.90;;
70293;SDS011;74367;35.280;-77.632;2024-03-23T08:06:55;24.57;;;4.00;;
70293;SDS011;74367;35.280;-77.632;2024-03-23T08:09:22;26.65;;;3.65;;
70293;SDS011;74367;35.280;-77.632;2024-03-23T08:11:48;20.08;;;3.92;;
70293;SDS011;74367;35.280;-77.632;2024-03-23T08:14:13;19.98;;;2.80;;
70293;SDS011;74367;35.280;-77.632;2024-03-23T08:16:40;19.80;;;3.50;;
70293;SDS011;74367;35.280;-77.632;2024-03-23T08:19:06;23.45;;;3.72;;
70293;SDS011;74367;35.280;-77.632;2024-03-23T08:21:33;69.10;;;6.07;;
70293;SDS011;74367;35.280;-77.632;2024-03-23T08:23:59;26.52;;;4.20;;
70293;SDS011;74367;35.280;-77.632;2024-03-23T08:26:25;27.43;;;5.17;;
70293;SDS011;74367;35.280;-77.632;2024-03-23T08:28:51;19.98;;;4.72;;
70293;SDS011;74367;35.280;-77.632;2024-03-23T08:31:17;26.50;;;4.63;;
70293;SDS011;74367;35.280;-77.632;2024-03-23T08:33:43;30.15;;;5.03;;
70293;SDS011;74367;35.280;-77.632;2024-03-23T08:36:10;32.93;;;4.00;;
70293;SDS011;74367;35.280;-77.632;2024-03-23T08:38:42;37.75;;;4.93;;
70293;SDS011;74367;35.280;-77.632;2024-03-23T08:41:09;29.13;;;4.53;;
70293;SDS011;74367;35.280;-77.632;2024-03-23T08:43:36;43.95;;;4.65;;
70293;SDS011;74367;35.280;-77.632;2024-03-23T08:46:11;29.73;;;4.55;;
70293;SDS011;74367;35.280;-77.632;2024-03-23T08:48:39;1.53;;;0.27;;
70293;SDS011;74367;35.280;-77.632;2024-03-23T08:51:08;1.27;;;0.50;;
70293;SDS011;74367;35.280;-77.632;2024-03-23T08:53:35;29.30;;;4.65;;
70293;SDS011;74367;35.280;-77.632;2024-03-23T08:56:02;32.55;;;6.00;;
70293;SDS011;74367;35.280;-77.632;2024-03-23T08:58:29;39.65;;;6.65;;
70293;SDS011;74367;35.280;-77.632;2024-03-23T09:00:57;27.80;;;4.77;;
70293;SDS011;74367;35.280;-77.632;2024-03-23T09:03:29;31.88;;;6.10;;
70293;SDS011;74367;35.280;-77.632;2024-03-23T09:05:56;35.38;;;5.38;;
70293;SDS011;74367;35.280;-77.632;2024-03-23T09:08:24;29.73;;;6.15;;
70293;SDS011;74367;35.280;-77.632;2024-03-23T09:10:51;34.40;;;5.25;;
70293;SDS011;74367;35.280;-77.632;2024-03-23T09:13:17;70.83;;;5.57;;
70293;SDS011;74367;35.280;-77.632;2024-03-23T09:15:47;43.75;;;5.47;;
70293;SDS011;74367;35.280;-77.632;2024-03-23T09:18:14;29.35;;;4.40;;
70293;SDS011;74367;35.280;-77.632;2024-03-23T09:20:41;31.45;;;4.72;;
70293;SDS011;74367;35.280;-77.632;2024-03-23T09:23:07;20.17;;;3.00;;
70293;SDS011;74367;35.280;-77.632;2024-03-23T09:25:37;29.03;;;5.10;;
70293;SDS011;74367;35.280;-77.632;2024-03-23T09:28:04;20.60;;;2.90;;
70293;SDS011;74367;35.280;-77.632;2024-03-23T09:30:32;20.88;;;3.33;;
70293;SDS011;74367;35.280;-77.632;2024-03-23T09:33:07;19.75;;;3.78;;
70293;SDS011;74367;35.280;-77.632;2024-03-23T09:35:40;15.30;;;2.75;;
70293;SDS011;74367;35.280;-77.632;2024-03-23T09:38:07;17.90;;;2.97;;
70293;SDS011;74367;35.280;-77.632;2024-03-23T09:40:34;15.77;;;2.65;;
70293;SDS011;74367;35.280;-77.632;2024-03-23T09:43:06;14.73;;;3.33;;
70293;SDS011;74367;35.280;-77.632;2024-03-23T09:45:34;17.45;;;2.20;;
70293;SDS011;74367;35.280;-77.632;2024-03-23T09:48:05;14.80;;;3.40;;
70293;SDS011;74367;35.280;-77.632;2024-03-23T09:50:34;12.03;;;2.63;;
70293;SDS011;74367;35.280;-77.632;2024-03-23T09:53:01;13.75;;;2.97;;
70293;SDS011;74367;35.280;-77.632;2024-03-23T09:55:27;15.90;;;2.58;;
70293;SDS011;74367;35.280;-77.632;2024-03-23T09:57:53;12.27;;;1.83;;
70293;SDS011;74367;35.280;-77.632;2024-03-23T10:00:19;12.93;;;2.40;;
70293;SDS011;74367;35.280;-77.632;2024-03-23T10:02:45;10.77;;;1.40;;
70293;SDS011;74367;35.280;-77.632;2024-03-23T10:05:20;12.75;;;1.73;;
70293;SDS011;74367;35.280;-77.632;2024-03-23T10:07:52;12.90;;;1.90;;
70293;SDS011;74367;35.280;-77.632;2024-03-23T10:10:18;12.25;;;2.53;;
70293;SDS011;74367;35.280;-77.632;2024-03-23T10:12:49;13.50;;;2.37;;
70293;SDS011;74367;35.280;-77.632;2024-03-23T10:15:22;13.98;;;2.28;;
70293;SDS011;74367;35.280;-77.632;2024-03-23T10:17:50;11.43;;;2.47;;
70293;SDS011;74367;35.280;-77.632;2024-03-23T10:20:20;11.60;;;2.97;;
70293;SDS011;74367;35.280;-77.632;2024-03-23T10:22:48;26.65;;;3.25;;
70293;SDS011;74367;35.280;-77.632;2024-03-23T10:25:15;15.80;;;1.97;;
70293;SDS011;74367;35.280;-77.632;2024-03-23T10:27:41;13.80;;;1.83;;
70293;SDS011;74367;35.280;-77.632;2024-03-23T10:30:12;19.48;;;2.00;;
70293;SDS011;74367;35.280;-77.632;2024-03-23T10:32:42;11.57;;;1.35;;
70293;SDS011;74367;35.280;-77.632;2024-03-23T10:35:16;14.10;;;1.75;;
70293;SDS011;74367;35.280;-77.632;2024-03-23T10:37:48;7.53;;;1.33;;
70293;SDS011;74367;35.280;-77.632;2024-03-23T10:40:17;10.05;;;1.35;;
70293;SDS011;74367;35.280;-77.632;2024-03-23T10:42:44;11.98;;;2.08;;
70293;SDS011;74367;35.280;-77.632;2024-03-23T10:45:11;9.27;;;1.13;;
70293;SDS011;74367;35.280;-77.632;2024-03-23T10:47:37;6.82;;;1.17;;
70293;SDS011;74367;35.280;-77.632;2024-03-23T10:50:03;7.47;;;1.30;;
70293;SDS011;74367;35.280;-77.632;2024-03-23T10:52:33;10.00;;;2.00;;
70293;SDS011;74367;35.280;-77.632;2024-03-23T10:55:00;9.82;;;1.80;;
70293;SDS011;74367;35.280;-77.632;2024-03-23T10:57:39;9.52;;;1.55;;
70293;SDS011;74367;35.280;-77.632;2024-03-23T11:00:08;8.80;;;2.10;;
70293;SDS011;74367;35.280;-77.632;2024-03-23T11:02:36;7.80;;;1.77;;
70293;SDS011;74367;35.280;-77.632;2024-03-23T11:05:04;10.57;;;1.80;;
70293;SDS011;74367;35.280;-77.632;2024-03-23T11:07:57;11.40;;;1.80;;
70293;SDS011;74367;35.280;-77.632;2024-03-23T11:10:27;9.02;;;1.70;;
70293;SDS011;74367;35.280;-77.632;2024-03-23T11:12:58;11.05;;;2.30;;
70293;SDS011;74367;35.280;-77.632;2024-03-23T11:15:44;11.47;;;1.80;;
70293;SDS011;74367;35.280;-77.632;2024-03-23T11:18:10;13.25;;;2.00;;
70293;SDS011;74367;35.280;-77.632;2024-03-23T11:20:37;10.05;;;1.85;;
70293;SDS011;74367;35.280;-77.632;2024-03-23T11:23:04;12.13;;;2.42;;
70293;SDS011;74367;35.280;-77.632;2024-03-23T11:25:30;14.85;;;3.50;;
70293;SDS011;74367;35.280;-77.632;2024-03-23T11:27:57;17.77;;;4.60;;
70293;SDS011;74367;35.280;-77.632;2024-03-23T11:30:25;21.63;;;4.97;;
70293;SDS011;74367;35.280;-77.632;2024-03-23T11:32:56;12.95;;;3.20;;
70293;SDS011;74367;35.280;-77.632;2024-03-23T11:35:33;17.17;;;3.97;;
70293;SDS011;74367;35.280;-77.632;2024-03-23T11:40:38;17.80;;;4.37;;
70293;SDS011;74367;35.280;-77.632;2024-03-23T11:43:07;17.25;;;3.92;;
70293;SDS011;74367;35.280;-77.632;2024-03-23T11:45:35;13.52;;;3.38;;
70293;SDS011;74367;35.280;-77.632;2024-03-23T11:48:20;13.60;;;3.80;;
70293;SDS011;74367;35.280;-77.632;2024-03-23T11:50:49;16.08;;;4.63;;
70293;SDS011;74367;35.280;-77.632;2024-03-23T11:53:20;18.87;;;3.93;;
70293;SDS011;74367;35.280;-77.632;2024-03-23T11:55:51;12.43;;;3.88;;
70293;SDS011;74367;35.280;-77.632;2024-03-23T11:58:19;22.48;;;4.25;;
70293;SDS011;74367;35.280;-77.632;2024-03-23T12:00:52;17.80;;;4.13;;
70293;SDS011;74367;35.280;-77.632;2024-03-23T12:03:22;16.98;;;4.25;;
70293;SDS011;74367;35.280;-77.632;2024-03-23T12:05:57;17.90;;;3.97;;
70293;SDS011;74367;35.280;-77.632;2024-03-23T12:08:31;16.25;;;3.88;;
70293;SDS011;74367;35.280;-77.632;2024-03-23T12:13:37;15.05;;;5.18;;
70293;SDS011;74367;35.280;-77.632;2024-03-23T12:16:13;20.38;;;5.50;;
70293;SDS011;74367;35.280;-77.632;2024-03-23T12:18:42;16.77;;;5.03;;
70293;SDS011;74367;35.280;-77.632;2024-03-23T12:21:08;15.38;;;4.65;;
70293;SDS011;74367;35.280;-77.632;2024-03-23T12:23:35;17.52;;;4.63;;
70293;SDS011;74367;35.280;-77.632;2024-03-23T12:26:04;23.75;;;5.93;;
70293;SDS011;74367;35.280;-77.632;2024-03-23T12:28:30;17.27;;;5.22;;
70293;SDS011;74367;35.280;-77.632;2024-03-23T12:30:57;16.40;;;6.37;;
70293;SDS011;74367;35.280;-77.632;2024-03-23T12:33:23;17.88;;;4.80;;
70293;SDS011;74367;35.280;-77.632;2024-03-23T12:35:49;20.23;;;7.20;;
70293;SDS011;74367;35.280;-77.632;2024-03-23T12:38:17;19.60;;;4.63;;
70293;SDS011;74367;35.280;-77.632;2024-03-23T12:40:47;20.75;;;5.85;;
70293;SDS011;74367;35.280;-77.632;2024-03-23T12:43:14;21.50;;;5.40;;
70293;SDS011;74367;35.280;-77.632;2024-03-23T12:45:45;20.08;;;5.18;;
70293;SDS011;74367;35.280;-77.632;2024-03-23T12:48:12;13.52;;;5.38;;
70293;SDS011;74367;35.280;-77.632;2024-03-23T12:50:38;19.90;;;6.25;;
70293;SDS011;74367;35.280;-77.632;2024-03-23T12:53:06;13.32;;;4.55;;
70293;SDS011;74367;35.280;-77.632;2024-03-23T12:55:34;18.33;;;7.03;;
70293;SDS011;74367;35.280;-77.632;2024-03-23T12:58:01;13.15;;;4.40;;
70293;SDS011;74367;35.280;-77.632;2024-03-23T13:00:28;18.55;;;5.13;;
70293;SDS011;74367;35.280;-77.632;2024-03-23T13:02:54;13.98;;;4.70;;
70293;SDS011;74367;35.280;-77.632;2024-03-23T13:05:20;13.90;;;5.20;;
70293;SDS011;74367;35.280;-77.632;2024-03-23T13:07:47;21.17;;;5.40;;
70293;SDS011;74367;35.280;-77.632;2024-03-23T13:10:13;20.10;;;6.10;;
70293;SDS011;74367;35.280;-77.632;2024-03-23T13:12:40;19.35;;;6.00;;
70293;SDS011;74367;35.280;-77.632;2024-03-23T13:15:08;19.67;;;6.30;;
70293;SDS011;74367;35.280;-77.632;2024-03-23T13:17:34;16.92;;;6.88;;
70293;SDS011;74367;35.280;-77.632;2024-03-23T13:20:00;22.13;;;5.50;;
70293;SDS011;74367;35.280;-77.632;2024-03-23T13:22:26;18.67;;;6.22;;
70293;SDS011;74367;35.280;-77.632;2024-03-23T13:24:52;18.20;;;5.82;;
70293;SDS011;74367;35.280;-77.632;2024-03-23T13:27:19;19.65;;;6.22;;
70293;SDS011;74367;35.280;-77.632;2024-03-23T13:29:45;22.75;;;7.80;;
70293;SDS011;74367;35.280;-77.632;2024-03-23T13:32:12;13.73;;;5.37;;
70293;SDS011;74367;35.280;-77.632;2024-03-23T13:34:38;12.75;;;5.63;;
70293;SDS011;74367;35.280;-77.632;2024-03-23T13:37:05;11.55;;;4.93;;
70293;SDS011;74367;35.280;-77.632;2024-03-23T13:39:32;12.20;;;4.05;;
70293;SDS011;74367;35.280;-77.632;2024-03-23T13:41:58;15.18;;;5.07;;
70293;SDS011;74367;35.280;-77.632;2024-03-23T13:44:24;13.17;;;4.93;;
70293;SDS011;74367;35.280;-77.632;2024-03-23T13:46:51;15.20;;;4.90;;
70293;SDS011;74367;35.280;-77.632;2024-03-23T13:51:54;11.95;;;3.97;;
70293;SDS011;74367;35.280;-77.632;2024-03-23T13:54:21;11.60;;;4.90;;
70293;SDS011;74367;35.280;-77.632;2024-03-23T13:56:48;12.87;;;4.13;;
70293;SDS011;74367;35.280;-77.632;2024-03-23T13:59:15;12.02;;;4.57;;
70293;SDS011;74367;35.280;-77.632;2024-03-23T14:01:42;18.67;;;4.80;;
70293;SDS011;74367;35.280;-77.632;2024-03-23T14:04:08;12.52;;;4.93;;
70293;SDS011;74367;35.280;-77.632;2024-03-23T14:06:35;11.02;;;4.55;;
70293;SDS011;74367;35.280;-77.632;2024-03-23T14:09:00;10.70;;;4.30;;
70293;SDS011;74367;35.280;-77.632;2024-03-23T14:11:29;13.40;;;5.28;;
70293;SDS011;74367;35.280;-77.632;2024-03-23T14:13:56;14.63;;;4.45;;
70293;SDS011;74367;35.280;-77.632;2024-03-23T14:16:23;10.23;;;4.35;;
70293;SDS011;74367;35.280;-77.632;2024-03-23T14:18:49;12.33;;;4.50;;
70293;SDS011;74367;35.280;-77.632;2024-03-23T14:21:16;13.10;;;4.88;;
70293;SDS011;74367;35.280;-77.632;2024-03-23T14:23:42;14.15;;;5.22;;
70293;SDS011;74367;35.280;-77.632;2024-03-23T14:26:08;12.40;;;5.00;;
70293;SDS011;74367;35.280;-77.632;2024-03-23T14:28:34;15.88;;;4.53;;
70293;SDS011;74367;35.280;-77.632;2024-03-23T14:31:00;14.83;;;4.80;;
70293;SDS011;74367;35.280;-77.632;2024-03-23T14:33:28;15.32;;;4.80;;
70293;SDS011;74367;35.280;-77.632;2024-03-23T14:35:55;12.60;;;5.47;;
70293;SDS011;74367;35.280;-77.632;2024-03-23T14:38:22;10.05;;;5.20;;
70293;SDS011;74367;35.280;-77.632;2024-03-23T14:40:48;16.03;;;7.10;;
70293;SDS011;74367;35.280;-77.632;2024-03-23T14:43:15;18.08;;;5.38;;
70293;SDS011;74367;35.280;-77.632;2024-03-23T14:48:35;10.55;;;4.60;;
70293;SDS011;74367;35.280;-77.632;2024-03-23T14:51:02;12.30;;;5.63;;
70293;SDS011;74367;35.280;-77.632;2024-03-23T14:53:33;16.43;;;5.03;;
70293;SDS011;74367;35.280;-77.632;2024-03-23T14:56:05;10.85;;;4.70;;
70293;SDS011;74367;35.280;-77.632;2024-03-23T14:58:32;14.45;;;5.88;;
70293;SDS011;74367;35.280;-77.632;2024-03-23T15:01:00;15.43;;;5.22;;
70293;SDS011;74367;35.280;-77.632;2024-03-23T15:03:31;15.27;;;5.15;;
70293;SDS011;74367;35.280;-77.632;2024-03-23T15:05:58;13.37;;;5.50;;
70293;SDS011;74367;35.280;-77.632;2024-03-23T15:08:27;19.88;;;5.20;;
70293;SDS011;74367;35.280;-77.632;2024-03-23T15:10:54;13.48;;;5.88;;
70293;SDS011;74367;35.280;-77.632;2024-03-23T15:13:23;16.38;;;5.93;;
70293;SDS011;74367;35.280;-77.632;2024-03-23T15:15:49;15.20;;;5.57;;